sensor_id;sensor_type;location;lat;lon;timestamp;P1;durP1;ratioP1;P2;durP2;ratioP2
6392;SDS011;3229;42.674;23.282;2022-10-16T00:01:32;5.60;;;5.07;;
6392;SDS011;3229;42.674;23.282;2022-10-16T00:04:00;9.43;;;5.90;;
6392;SDS011;3229;42.674;23.282;2022-10-16T00:06:28;8.27;;;5.90;;
6392;SDS011;3229;42.674;23.282;2022-10-16T00:08:56;6.17;;;4.80;;
6392;SDS011;3229;42.674;23.282;2022-10-16T00:11:24;7.17;;;5.63;;
6392;SDS011;3229;42.674;23.282;2022-10-16T00:13:54;6.77;;;5.03;;
6392;SDS011;3229;42.674;23.282;2022-10-16T00:16:22;7.87;;;5.17;;
6392;SDS011;3229;42.674;23.282;2022-10-16T00:18:51;8.17;;;6.20;;
6392;SDS011;3229;42.674;23.282;2022-10-16T00:21:19;10.00;;;5.50;;
6392;SDS011;3229;42.674;23.282;2022-10-16T00:23:49;8.13;;;6.03;;
6392;SDS011;3229;42.674;23.282;2022-10-16T00:26:17;6.83;;;5.73;;
6392;SDS011;3229;42.674;23.282;2022-10-16T00:28:45;6.77;;;5.60;;
6392;SDS011;3229;42.674;23.282;2022-10-16T00:31:13;8.23;;;5.30;;
6392;SDS011;3229;42.674;23.282;2022-10-16T00:33:40;6.60;;;5.77;;
6392;SDS011;3229;42.674;23.282;2022-10-16T00:36:10;9.23;;;6.10;;
6392;SDS011;3229;42.674;23.282;2022-10-16T00:38:38;7.67;;;5.67;;
6392;SDS011;3229;42.674;23.282;2022-10-16T00:41:06;9.23;;;6.20;;
6392;SDS011;3229;42.674;23.282;2022-10-16T00:43:38;5.87;;;5.03;;
6392;SDS011;3229;42.674;23.282;2022-10-16T00:46:10;7.60;;;5.70;;
6392;SDS011;3229;42.674;23.282;2022-10-16T00:48:42;8.80;;;6.07;;
6392;SDS011;3229;42.674;23.282;2022-10-16T00:51:19;7.00;;;5.50;;
6392;SDS011;3229;42.674;23.282;2022-10-16T00:53:51;8.90;;;6.10;;
6392;SDS011;3229;42.674;23.282;2022-10-16T00:56:19;6.10;;;5.33;;
6392;SDS011;3229;42.674;23.282;2022-10-16T00:58:46;7.70;;;6.17;;
6392;SDS011;3229;42.674;23.282;2022-10-16T01:01:13;7.63;;;6.20;;
6392;SDS011;3229;42.674;23.282;2022-10-16T01:03:40;7.93;;;6.27;;
6392;SDS011;3229;42.674;23.282;2022-10-16T01:06:14;8.20;;;6.00;;
6392;SDS011;3229;42.674;23.282;2022-10-16T01:09:02;9.03;;;5.87;;
6392;SDS011;3229;42.674;23.282;2022-10-16T01:11:38;8.60;;;5.90;;
6392;SDS011;3229;42.674;23.282;2022-10-16T01:14:11;7.83;;;6.20;;
6392;SDS011;3229;42.674;23.282;2022-10-16T01:16:47;8.50;;;6.50;;
6392;SDS011;3229;42.674;23.282;2022-10-16T01:19:20;8.20;;;6.27;;
6392;SDS011;3229;42.674;23.282;2022-10-16T01:22:00;8.03;;;5.93;;
6392;SDS011;3229;42.674;23.282;2022-10-16T01:24:31;6.47;;;5.50;;
6392;SDS011;3229;42.674;23.282;2022-10-16T01:27:07;8.83;;;6.43;;
6392;SDS011;3229;42.674;23.282;2022-10-16T01:29:37;7.00;;;5.77;;
6392;SDS011;3229;42.674;23.282;2022-10-16T01:32:20;9.13;;;6.10;;
6392;SDS011;3229;42.674;23.282;2022-10-16T01:34:52;7.80;;;5.60;;
6392;SDS011;3229;42.674;23.282;2022-10-16T01:37:27;8.50;;;6.07;;
6392;SDS011;3229;42.674;23.282;2022-10-16T01:39:59;10.43;;;6.20;;
6392;SDS011;3229;42.674;23.282;2022-10-16T01:42:30;6.90;;;5.83;;
6392;SDS011;3229;42.674;23.282;2022-10-16T01:45:01;7.40;;;5.63;;
6392;SDS011;3229;42.674;23.282;2022-10-16T01:47:48;8.00;;;5.70;;
6392;SDS011;3229;42.674;23.282;2022-10-16T01:50:18;8.67;;;5.90;;
6392;SDS011;3229;42.674;23.282;2022-10-16T01:52:47;10.73;;;6.70;;
6392;SDS011;3229;42.674;23.282;2022-10-16T01:55:18;8.57;;;5.93;;
6392;SDS011;3229;42.674;23.282;2022-10-16T01:57:52;8.27;;;6.23;;
6392;SDS011;3229;42.674;23.282;2022-10-16T02:00:21;10.43;;;6.23;;
6392;SDS011;3229;42.674;23.282;2022-10-16T02:02:49;9.20;;;6.17;;
6392;SDS011;3229;42.674;23.282;2022-10-16T02:05:21;7.37;;;6.00;;
6392;SDS011;3229;42.674;23.282;2022-10-16T02:07:53;7.90;;;5.90;;
6392;SDS011;3229;42.674;23.282;2022-10-16T02:10:20;9.43;;;5.87;;
6392;SDS011;3229;42.674;23.282;2022-10-16T02:12:49;8.47;;;6.07;;
6392;SDS011;3229;42.674;23.282;2022-10-16T02:15:22;7.87;;;6.13;;
6392;SDS011;3229;42.674;23.282;2022-10-16T02:17:49;7.87;;;5.30;;
6392;SDS011;3229;42.674;23.282;2022-10-16T02:20:16;6.67;;;5.50;;
6392;SDS011;3229;42.674;23.282;2022-10-16T02:22:45;9.20;;;5.97;;
6392;SDS011;3229;42.674;23.282;2022-10-16T02:25:17;7.03;;;5.37;;
6392;SDS011;3229;42.674;23.282;2022-10-16T02:27:50;7.47;;;5.67;;
6392;SDS011;3229;42.674;23.282;2022-10-16T02:30:25;7.97;;;5.97;;
6392;SDS011;3229;42.674;23.282;2022-10-16T02:32:55;7.40;;;6.07;;
6392;SDS011;3229;42.674;23.282;2022-10-16T02:35:25;7.83;;;5.33;;
6392;SDS011;3229;42.674;23.282;2022-10-16T02:37:53;7.83;;;5.73;;
6392;SDS011;3229;42.674;23.282;2022-10-16T02:40:22;8.50;;;5.67;;
6392;SDS011;3229;42.674;23.282;2022-10-16T02:42:50;7.47;;;5.47;;
6392;SDS011;3229;42.674;23.282;2022-10-16T02:45:19;7.90;;;5.23;;
6392;SDS011;3229;42.674;23.282;2022-10-16T02:47:47;6.47;;;5.13;;
6392;SDS011;3229;42.674;23.282;2022-10-16T02:50:14;7.57;;;5.17;;
6392;SDS011;3229;42.674;23.282;2022-10-16T02:52:42;7.87;;;5.33;;
6392;SDS011;3229;42.674;23.282;2022-10-16T02:55:08;5.97;;;5.07;;
6392;SDS011;3229;42.674;23.282;2022-10-16T02:57:35;6.37;;;5.40;;
6392;SDS011;3229;42.674;23.282;2022-10-16T03:00:05;6.83;;;4.87;;
6392;SDS011;3229;42.674;23.282;2022-10-16T03:02:34;7.47;;;5.27;;
6392;SDS011;3229;42.674;23.282;2022-10-16T03:05:01;6.60;;;5.10;;
6392;SDS011;3229;42.674;23.282;2022-10-16T03:07:28;6.37;;;4.90;;
6392;SDS011;3229;42.674;23.282;2022-10-16T03:09:58;7.27;;;4.60;;
6392;SDS011;3229;42.674;23.282;2022-10-16T03:12:25;7.13;;;6.07;;
6392;SDS011;3229;42.674;23.282;2022-10-16T03:14:52;9.73;;;5.50;;
6392;SDS011;3229;42.674;23.282;2022-10-16T03:17:19;6.97;;;5.27;;
6392;SDS011;3229;42.674;23.282;2022-10-16T03:19:48;7.90;;;4.90;;
6392;SDS011;3229;42.674;23.282;2022-10-16T03:22:15;5.97;;;5.23;;
6392;SDS011;3229;42.674;23.282;2022-10-16T03:24:42;6.70;;;5.00;;
6392;SDS011;3229;42.674;23.282;2022-10-16T03:27:09;7.50;;;5.00;;
6392;SDS011;3229;42.674;23.282;2022-10-16T03:29:36;6.00;;;4.73;;
6392;SDS011;3229;42.674;23.282;2022-10-16T03:32:03;5.07;;;4.40;;
6392;SDS011;3229;42.674;23.282;2022-10-16T03:34:30;6.60;;;5.37;;
6392;SDS011;3229;42.674;23.282;2022-10-16T03:36:58;9.87;;;5.67;;
6392;SDS011;3229;42.674;23.282;2022-10-16T03:39:25;7.30;;;4.60;;
6392;SDS011;3229;42.674;23.282;2022-10-16T03:41:52;5.83;;;4.90;;
6392;SDS011;3229;42.674;23.282;2022-10-16T03:44:19;7.40;;;5.57;;
6392;SDS011;3229;42.674;23.282;2022-10-16T03:46:46;10.57;;;5.90;;
6392;SDS011;3229;42.674;23.282;2022-10-16T03:49:15;6.77;;;4.97;;
6392;SDS011;3229;42.674;23.282;2022-10-16T03:51:42;6.23;;;5.53;;
6392;SDS011;3229;42.674;23.282;2022-10-16T03:54:10;7.03;;;5.00;;
6392;SDS011;3229;42.674;23.282;2022-10-16T03:56:37;6.37;;;5.40;;
6392;SDS011;3229;42.674;23.282;2022-10-16T03:59:04;5.97;;;5.20;;
6392;SDS011;3229;42.674;23.282;2022-10-16T04:01:31;7.43;;;5.20;;
6392;SDS011;3229;42.674;23.282;2022-10-16T04:03:58;7.00;;;5.57;;
6392;SDS011;3229;42.674;23.282;2022-10-16T04:06:25;6.73;;;5.77;;
6392;SDS011;3229;42.674;23.282;2022-10-16T04:08:51;6.17;;;5.23;;
6392;SDS011;3229;42.674;23.282;2022-10-16T04:11:20;7.70;;;5.67;;
6392;SDS011;3229;42.674;23.282;2022-10-16T04:13:46;7.10;;;5.50;;
6392;SDS011;3229;42.674;23.282;2022-10-16T04:16:13;9.77;;;5.30;;
6392;SDS011;3229;42.674;23.282;2022-10-16T04:18:40;7.27;;;5.37;;
6392;SDS011;3229;42.674;23.282;2022-10-16T04:21:07;8.80;;;5.60;;
6392;SDS011;3229;42.674;23.282;2022-10-16T04:23:35;6.60;;;5.17;;
6392;SDS011;3229;42.674;23.282;2022-10-16T04:26:01;9.07;;;5.00;;
6392;SDS011;3229;42.674;23.282;2022-10-16T04:28:30;5.10;;;4.60;;
6392;SDS011;3229;42.674;23.282;2022-10-16T04:30:57;5.97;;;4.80;;
6392;SDS011;3229;42.674;23.282;2022-10-16T04:33:24;6.20;;;5.23;;
6392;SDS011;3229;42.674;23.282;2022-10-16T04:35:55;7.50;;;5.20;;
6392;SDS011;3229;42.674;23.282;2022-10-16T04:38:23;7.57;;;5.27;;
6392;SDS011;3229;42.674;23.282;2022-10-16T04:40:50;7.73;;;5.40;;
6392;SDS011;3229;42.674;23.282;2022-10-16T04:43:17;10.77;;;5.27;;
6392;SDS011;3229;42.674;23.282;2022-10-16T04:45:45;5.50;;;4.57;;
6392;SDS011;3229;42.674;23.282;2022-10-16T04:48:12;7.33;;;5.03;;
6392;SDS011;3229;42.674;23.282;2022-10-16T04:50:39;5.47;;;4.97;;
6392;SDS011;3229;42.674;23.282;2022-10-16T04:53:07;7.17;;;4.90;;
6392;SDS011;3229;42.674;23.282;2022-10-16T04:55:34;9.90;;;5.13;;
6392;SDS011;3229;42.674;23.282;2022-10-16T04:58:01;6.70;;;5.03;;
6392;SDS011;3229;42.674;23.282;2022-10-16T05:00:28;6.43;;;5.13;;
6392;SDS011;3229;42.674;23.282;2022-10-16T05:02:56;7.50;;;4.90;;
6392;SDS011;3229;42.674;23.282;2022-10-16T05:05:24;8.87;;;5.97;;
6392;SDS011;3229;42.674;23.282;2022-10-16T05:07:51;12.93;;;5.60;;
6392;SDS011;3229;42.674;23.282;2022-10-16T05:10:18;5.93;;;4.77;;
6392;SDS011;3229;42.674;23.282;2022-10-16T05:12:46;7.97;;;4.80;;
6392;SDS011;3229;42.674;23.282;2022-10-16T05:15:13;6.53;;;5.10;;
6392;SDS011;3229;42.674;23.282;2022-10-16T05:17:40;7.03;;;4.60;;
6392;SDS011;3229;42.674;23.282;2022-10-16T05:20:08;5.17;;;4.67;;
6392;SDS011;3229;42.674;23.282;2022-10-16T05:22:36;6.73;;;5.20;;
6392;SDS011;3229;42.674;23.282;2022-10-16T05:25:03;6.97;;;5.20;;
6392;SDS011;3229;42.674;23.282;2022-10-16T05:27:30;10.03;;;5.13;;
6392;SDS011;3229;42.674;23.282;2022-10-16T05:30:12;7.07;;;4.77;;
6392;SDS011;3229;42.674;23.282;2022-10-16T05:32:39;6.43;;;4.80;;
6392;SDS011;3229;42.674;23.282;2022-10-16T05:35:06;7.50;;;5.23;;
6392;SDS011;3229;42.674;23.282;2022-10-16T05:37:37;7.43;;;5.47;;
6392;SDS011;3229;42.674;23.282;2022-10-16T05:40:04;8.07;;;5.37;;
6392;SDS011;3229;42.674;23.282;2022-10-16T05:42:32;9.70;;;5.57;;
6392;SDS011;3229;42.674;23.282;2022-10-16T05:44:59;8.27;;;5.43;;
6392;SDS011;3229;42.674;23.282;2022-10-16T05:47:26;9.20;;;5.17;;
6392;SDS011;3229;42.674;23.282;2022-10-16T05:49:53;7.30;;;5.47;;
6392;SDS011;3229;42.674;23.282;2022-10-16T05:52:21;6.77;;;4.97;;
6392;SDS011;3229;42.674;23.282;2022-10-16T05:54:48;7.50;;;5.07;;
6392;SDS011;3229;42.674;23.282;2022-10-16T05:57:15;5.90;;;5.30;;
6392;SDS011;3229;42.674;23.282;2022-10-16T05:59:42;6.83;;;5.47;;
6392;SDS011;3229;42.674;23.282;2022-10-16T06:02:10;7.03;;;5.70;;
6392;SDS011;3229;42.674;23.282;2022-10-16T06:04:39;9.37;;;5.20;;
6392;SDS011;3229;42.674;23.282;2022-10-16T06:07:05;4.90;;;4.40;;
6392;SDS011;3229;42.674;23.282;2022-10-16T06:09:35;7.27;;;6.13;;
6392;SDS011;3229;42.674;23.282;2022-10-16T06:12:02;6.03;;;5.40;;
6392;SDS011;3229;42.674;23.282;2022-10-16T06:14:29;6.77;;;5.70;;
6392;SDS011;3229;42.674;23.282;2022-10-16T06:16:56;8.70;;;5.07;;
6392;SDS011;3229;42.674;23.282;2022-10-16T06:19:23;7.93;;;5.07;;
6392;SDS011;3229;42.674;23.282;2022-10-16T06:21:49;6.43;;;5.57;;
6392;SDS011;3229;42.674;23.282;2022-10-16T06:24:16;6.03;;;5.23;;
6392;SDS011;3229;42.674;23.282;2022-10-16T06:26:45;6.17;;;4.70;;
6392;SDS011;3229;42.674;23.282;2022-10-16T06:29:12;7.17;;;5.27;;
6392;SDS011;3229;42.674;23.282;2022-10-16T06:31:41;11.10;;;4.87;;
6392;SDS011;3229;42.674;23.282;2022-10-16T06:34:08;5.10;;;4.60;;
6392;SDS011;3229;42.674;23.282;2022-10-16T06:36:36;7.03;;;4.37;;
6392;SDS011;3229;42.674;23.282;2022-10-16T06:39:04;5.35;;;4.50;;
6392;SDS011;3229;42.674;23.282;2022-10-16T06:41:32;8.80;;;4.63;;
6392;SDS011;3229;42.674;23.282;2022-10-16T06:44:01;8.10;;;4.25;;
6392;SDS011;3229;42.674;23.282;2022-10-16T06:46:40;6.43;;;4.10;;
6392;SDS011;3229;42.674;23.282;2022-10-16T06:49:07;5.00;;;4.38;;
6392;SDS011;3229;42.674;23.282;2022-10-16T06:51:33;5.57;;;4.32;;
6392;SDS011;3229;42.674;23.282;2022-10-16T06:54:01;5.20;;;4.15;;
6392;SDS011;3229;42.674;23.282;2022-10-16T06:56:29;6.13;;;4.38;;
6392;SDS011;3229;42.674;23.282;2022-10-16T06:58:57;11.23;;;4.05;;
6392;SDS011;3229;42.674;23.282;2022-10-16T07:01:26;4.82;;;4.00;;
6392;SDS011;3229;42.674;23.282;2022-10-16T07:03:54;4.88;;;3.95;;
6392;SDS011;3229;42.674;23.282;2022-10-16T07:06:22;4.60;;;4.20;;
6392;SDS011;3229;42.674;23.282;2022-10-16T07:08:50;5.18;;;4.00;;
6392;SDS011;3229;42.674;23.282;2022-10-16T07:11:18;6.10;;;3.97;;
6392;SDS011;3229;42.674;23.282;2022-10-16T07:13:46;5.05;;;3.90;;
6392;SDS011;3229;42.674;23.282;2022-10-16T07:16:15;7.00;;;3.80;;
6392;SDS011;3229;42.674;23.282;2022-10-16T07:18:44;6.07;;;4.20;;
6392;SDS011;3229;42.674;23.282;2022-10-16T07:21:14;4.53;;;3.63;;
6392;SDS011;3229;42.674;23.282;2022-10-16T07:23:42;8.38;;;3.83;;
6392;SDS011;3229;42.674;23.282;2022-10-16T07:26:09;4.03;;;3.47;;
6392;SDS011;3229;42.674;23.282;2022-10-16T07:28:37;6.72;;;3.90;;
6392;SDS011;3229;42.674;23.282;2022-10-16T07:31:06;5.00;;;3.63;;
6392;SDS011;3229;42.674;23.282;2022-10-16T07:33:35;8.02;;;3.88;;
6392;SDS011;3229;42.674;23.282;2022-10-16T07:36:05;6.55;;;3.92;;
6392;SDS011;3229;42.674;23.282;2022-10-16T07:38:32;5.22;;;4.00;;
6392;SDS011;3229;42.674;23.282;2022-10-16T07:40:59;4.45;;;4.00;;
6392;SDS011;3229;42.674;23.282;2022-10-16T07:43:28;7.95;;;4.20;;
6392;SDS011;3229;42.674;23.282;2022-10-16T07:45:57;4.78;;;3.92;;
6392;SDS011;3229;42.674;23.282;2022-10-16T07:48:27;5.70;;;4.50;;
6392;SDS011;3229;42.674;23.282;2022-10-16T07:50:57;10.00;;;4.50;;
6392;SDS011;3229;42.674;23.282;2022-10-16T07:53:26;4.65;;;4.15;;
6392;SDS011;3229;42.674;23.282;2022-10-16T07:55:56;9.80;;;4.30;;
6392;SDS011;3229;42.674;23.282;2022-10-16T07:58:24;6.55;;;4.68;;
6392;SDS011;3229;42.674;23.282;2022-10-16T08:00:54;5.38;;;4.00;;
6392;SDS011;3229;42.674;23.282;2022-10-16T08:03:20;5.10;;;4.43;;
6392;SDS011;3229;42.674;23.282;2022-10-16T08:05:50;5.32;;;4.25;;
6392;SDS011;3229;42.674;23.282;2022-10-16T08:11:29;6.07;;;4.03;;
6392;SDS011;3229;42.674;23.282;2022-10-16T08:13:56;5.93;;;5.13;;
6392;SDS011;3229;42.674;23.282;2022-10-16T08:16:23;5.18;;;4.20;;
6392;SDS011;3229;42.674;23.282;2022-10-16T08:18:52;7.10;;;4.47;;
6392;SDS011;3229;42.674;23.282;2022-10-16T08:21:20;5.38;;;4.35;;
6392;SDS011;3229;42.674;23.282;2022-10-16T08:23:49;10.60;;;5.25;;
6392;SDS011;3229;42.674;23.282;2022-10-16T08:26:16;5.72;;;4.60;;
6392;SDS011;3229;42.674;23.282;2022-10-16T08:28:48;8.80;;;4.75;;
6392;SDS011;3229;42.674;23.282;2022-10-16T08:31:16;8.07;;;5.00;;
6392;SDS011;3229;42.674;23.282;2022-10-16T08:33:43;6.88;;;4.32;;
6392;SDS011;3229;42.674;23.282;2022-10-16T08:36:13;5.15;;;3.75;;
6392;SDS011;3229;42.674;23.282;2022-10-16T08:38:43;5.60;;;5.00;;
6392;SDS011;3229;42.674;23.282;2022-10-16T08:41:18;5.72;;;4.32;;
6392;SDS011;3229;42.674;23.282;2022-10-16T08:44:06;5.82;;;4.50;;
6392;SDS011;3229;42.674;23.282;2022-10-16T08:46:42;4.80;;;4.30;;
6392;SDS011;3229;42.674;23.282;2022-10-16T08:49:17;4.63;;;3.88;;
6392;SDS011;3229;42.674;23.282;2022-10-16T08:51:45;6.60;;;4.20;;
6392;SDS011;3229;42.674;23.282;2022-10-16T08:54:18;4.88;;;3.60;;
6392;SDS011;3229;42.674;23.282;2022-10-16T08:56:53;6.55;;;4.30;;
6392;SDS011;3229;42.674;23.282;2022-10-16T08:59:22;4.20;;;3.75;;
6392;SDS011;3229;42.674;23.282;2022-10-16T09:01:50;5.88;;;4.50;;
6392;SDS011;3229;42.674;23.282;2022-10-16T09:07:20;8.57;;;3.72;;
6392;SDS011;3229;42.674;23.282;2022-10-16T09:09:59;4.13;;;3.72;;
6392;SDS011;3229;42.674;23.282;2022-10-16T09:12:37;4.53;;;3.80;;
6392;SDS011;3229;42.674;23.282;2022-10-16T09:15:17;7.93;;;3.33;;
6392;SDS011;3229;42.674;23.282;2022-10-16T09:17:56;7.60;;;3.58;;
6392;SDS011;3229;42.674;23.282;2022-10-16T09:20:31;4.15;;;3.67;;
6392;SDS011;3229;42.674;23.282;2022-10-16T09:23:15;4.43;;;3.63;;
6392;SDS011;3229;42.674;23.282;2022-10-16T09:25:46;4.80;;;3.60;;
6392;SDS011;3229;42.674;23.282;2022-10-16T09:28:14;5.25;;;3.65;;
6392;SDS011;3229;42.674;23.282;2022-10-16T09:30:42;3.97;;;2.92;;
6392;SDS011;3229;42.674;23.282;2022-10-16T09:33:13;5.07;;;3.25;;
6392;SDS011;3229;42.674;23.282;2022-10-16T09:35:47;4.90;;;3.42;;
6392;SDS011;3229;42.674;23.282;2022-10-16T09:38:20;3.38;;;3.08;;
6392;SDS011;3229;42.674;23.282;2022-10-16T09:40:49;3.42;;;3.13;;
6392;SDS011;3229;42.674;23.282;2022-10-16T09:43:19;6.03;;;3.20;;
6392;SDS011;3229;42.674;23.282;2022-10-16T09:45:54;5.22;;;3.33;;
6392;SDS011;3229;42.674;23.282;2022-10-16T09:48:22;4.13;;;3.45;;
6392;SDS011;3229;42.674;23.282;2022-10-16T09:50:58;5.68;;;3.45;;
6392;SDS011;3229;42.674;23.282;2022-10-16T09:53:26;3.60;;;3.30;;
6392;SDS011;3229;42.674;23.282;2022-10-16T09:56:05;4.18;;;3.15;;
6392;SDS011;3229;42.674;23.282;2022-10-16T09:58:34;4.05;;;3.65;;
6392;SDS011;3229;42.674;23.282;2022-10-16T10:01:11;4.07;;;3.33;;
6392;SDS011;3229;42.674;23.282;2022-10-16T10:03:40;4.10;;;3.08;;
6392;SDS011;3229;42.674;23.282;2022-10-16T10:09:13;4.07;;;3.20;;
6392;SDS011;3229;42.674;23.282;2022-10-16T10:11:49;3.42;;;3.10;;
6392;SDS011;3229;42.674;23.282;2022-10-16T10:17:17;3.65;;;2.97;;
6392;SDS011;3229;42.674;23.282;2022-10-16T10:19:49;3.70;;;2.75;;
6392;SDS011;3229;42.674;23.282;2022-10-16T10:22:22;4.32;;;3.40;;
6392;SDS011;3229;42.674;23.282;2022-10-16T10:24:57;3.67;;;3.38;;
6392;SDS011;3229;42.674;23.282;2022-10-16T10:27:45;3.20;;;2.90;;
6392;SDS011;3229;42.674;23.282;2022-10-16T10:30:24;3.55;;;2.92;;
6392;SDS011;3229;42.674;23.282;2022-10-16T10:33:01;3.63;;;3.08;;
6392;SDS011;3229;42.674;23.282;2022-10-16T10:35:42;3.95;;;3.08;;
6392;SDS011;3229;42.674;23.282;2022-10-16T10:38:21;3.50;;;3.20;;
6392;SDS011;3229;42.674;23.282;2022-10-16T10:41:00;4.93;;;3.22;;
6392;SDS011;3229;42.674;23.282;2022-10-16T10:43:44;6.50;;;3.45;;
6392;SDS011;3229;42.674;23.282;2022-10-16T10:46:24;8.57;;;3.35;;
6392;SDS011;3229;42.674;23.282;2022-10-16T10:52:00;4.57;;;3.10;;
6392;SDS011;3229;42.674;23.282;2022-10-16T10:54:42;3.30;;;3.00;;
6392;SDS011;3229;42.674;23.282;2022-10-16T10:57:20;3.42;;;3.13;;
6392;SDS011;3229;42.674;23.282;2022-10-16T11:02:46;3.83;;;2.90;;
6392;SDS011;3229;42.674;23.282;2022-10-16T11:05:23;2.97;;;2.67;;
6392;SDS011;3229;42.674;23.282;2022-10-16T11:07:57;3.45;;;3.15;;
6392;SDS011;3229;42.674;23.282;2022-10-16T11:10:34;3.17;;;2.90;;
6392;SDS011;3229;42.674;23.282;2022-10-16T11:13:16;5.75;;;2.97;;
6392;SDS011;3229;42.674;23.282;2022-10-16T11:15:54;3.72;;;3.22;;
6392;SDS011;3229;42.674;23.282;2022-10-16T11:18:25;3.92;;;3.45;;
6392;SDS011;3229;42.674;23.282;2022-10-16T11:21:00;3.50;;;3.20;;
6392;SDS011;3229;42.674;23.282;2022-10-16T11:23:31;6.63;;;3.38;;
6392;SDS011;3229;42.674;23.282;2022-10-16T11:26:08;3.65;;;2.97;;
6392;SDS011;3229;42.674;23.282;2022-10-16T11:28:40;3.25;;;3.00;;
6392;SDS011;3229;42.674;23.282;2022-10-16T11:31:13;5.03;;;3.00;;
6392;SDS011;3229;42.674;23.282;2022-10-16T11:33:45;3.38;;;3.08;;
6392;SDS011;3229;42.674;23.282;2022-10-16T11:36:21;5.22;;;3.22;;
6392;SDS011;3229;42.674;23.282;2022-10-16T11:38:53;3.33;;;2.90;;
6392;SDS011;3229;42.674;23.282;2022-10-16T11:41:27;2.75;;;2.50;;
6392;SDS011;3229;42.674;23.282;2022-10-16T11:44:09;3.13;;;2.90;;
6392;SDS011;3229;42.674;23.282;2022-10-16T11:46:49;2.70;;;2.50;;
6392;SDS011;3229;42.674;23.282;2022-10-16T11:49:27;4.22;;;2.97;;
6392;SDS011;3229;42.674;23.282;2022-10-16T11:52:13;3.50;;;3.20;;
6392;SDS011;3229;42.674;23.282;2022-10-16T11:54:47;3.53;;;3.22;;
6392;SDS011;3229;42.674;23.282;2022-10-16T11:57:20;3.88;;;3.17;;
6392;SDS011;3229;42.674;23.282;2022-10-16T11:59:51;4.47;;;2.80;;
6392;SDS011;3229;42.674;23.282;2022-10-16T12:05:18;2.97;;;2.65;;
6392;SDS011;3229;42.674;23.282;2022-10-16T12:07:55;3.78;;;3.03;;
6392;SDS011;3229;42.674;23.282;2022-10-16T12:10:29;3.30;;;3.00;;
6392;SDS011;3229;42.674;23.282;2022-10-16T12:13:02;3.38;;;2.88;;
6392;SDS011;3229;42.674;23.282;2022-10-16T12:15:29;3.20;;;2.90;;
6392;SDS011;3229;42.674;23.282;2022-10-16T12:17:57;2.83;;;2.53;;
6392;SDS011;3229;42.674;23.282;2022-10-16T12:20:26;2.97;;;2.70;;
6392;SDS011;3229;42.674;23.282;2022-10-16T12:22:58;5.60;;;2.92;;
6392;SDS011;3229;42.674;23.282;2022-10-16T12:25:28;2.92;;;2.72;;
6392;SDS011;3229;42.674;23.282;2022-10-16T12:27:58;2.80;;;2.47;;
6392;SDS011;3229;42.674;23.282;2022-10-16T12:30:28;5.70;;;3.50;;
6392;SDS011;3229;42.674;23.282;2022-10-16T12:32:57;4.97;;;2.95;;
6392;SDS011;3229;42.674;23.282;2022-10-16T12:35:27;3.28;;;2.97;;
6392;SDS011;3229;42.674;23.282;2022-10-16T12:38:05;4.57;;;3.05;;
6392;SDS011;3229;42.674;23.282;2022-10-16T12:40:35;4.07;;;3.05;;
6392;SDS011;3229;42.674;23.282;2022-10-16T12:46:02;4.57;;;3.22;;
6392;SDS011;3229;42.674;23.282;2022-10-16T12:48:30;3.30;;;2.80;;
6392;SDS011;3229;42.674;23.282;2022-10-16T12:50:57;4.15;;;3.15;;
6392;SDS011;3229;42.674;23.282;2022-10-16T12:53:38;4.30;;;3.10;;
6392;SDS011;3229;42.674;23.282;2022-10-16T12:56:09;6.82;;;3.47;;
6392;SDS011;3229;42.674;23.282;2022-10-16T12:58:46;3.47;;;2.88;;
6392;SDS011;3229;42.674;23.282;2022-10-16T13:01:29;5.30;;;3.00;;
6392;SDS011;3229;42.674;23.282;2022-10-16T13:04:11;3.40;;;3.10;;
6392;SDS011;3229;42.674;23.282;2022-10-16T13:07:15;7.75;;;2.72;;
6392;SDS011;3229;42.674;23.282;2022-10-16T13:09:57;3.78;;;3.00;;
6392;SDS011;3229;42.674;23.282;2022-10-16T13:12:45;3.67;;;2.63;;
6392;SDS011;3229;42.674;23.282;2022-10-16T13:18:32;3.38;;;3.08;;
6392;SDS011;3229;42.674;23.282;2022-10-16T13:21:16;3.92;;;2.72;;
6392;SDS011;3229;42.674;23.282;2022-10-16T13:23:55;6.00;;;3.17;;
6392;SDS011;3229;42.674;23.282;2022-10-16T13:26:34;3.90;;;3.00;;
6392;SDS011;3229;42.674;23.282;2022-10-16T13:29:13;4.60;;;2.70;;
6392;SDS011;3229;42.674;23.282;2022-10-16T13:31:41;4.15;;;2.63;;
6392;SDS011;3229;42.674;23.282;2022-10-16T13:34:11;4.38;;;2.92;;
6392;SDS011;3229;42.674;23.282;2022-10-16T13:36:45;3.45;;;2.83;;
6392;SDS011;3229;42.674;23.282;2022-10-16T13:39:16;3.20;;;2.90;;
6392;SDS011;3229;42.674;23.282;2022-10-16T13:42:00;2.95;;;2.67;;
6392;SDS011;3229;42.674;23.282;2022-10-16T13:44:30;4.57;;;3.03;;
6392;SDS011;3229;42.674;23.282;2022-10-16T13:47:02;4.15;;;2.60;;
6392;SDS011;3229;42.674;23.282;2022-10-16T13:52:33;5.68;;;3.28;;
6392;SDS011;3229;42.674;23.282;2022-10-16T13:55:00;3.50;;;2.90;;
6392;SDS011;3229;42.674;23.282;2022-10-16T13:57:28;3.30;;;2.80;;
6392;SDS011;3229;42.674;23.282;2022-10-16T13:59:57;4.22;;;2.80;;
6392;SDS011;3229;42.674;23.282;2022-10-16T14:02:25;3.40;;;3.10;;
6392;SDS011;3229;42.674;23.282;2022-10-16T14:04:55;4.38;;;3.15;;
6392;SDS011;3229;42.674;23.282;2022-10-16T14:07:25;2.92;;;2.70;;
6392;SDS011;3229;42.674;23.282;2022-10-16T14:09:55;3.17;;;2.92;;
6392;SDS011;3229;42.674;23.282;2022-10-16T14:12:26;3.25;;;2.90;;
6392;SDS011;3229;42.674;23.282;2022-10-16T14:14:55;2.97;;;2.67;;
6392;SDS011;3229;42.674;23.282;2022-10-16T14:17:24;4.97;;;3.33;;
6392;SDS011;3229;42.674;23.282;2022-10-16T14:19:54;2.88;;;2.50;;
6392;SDS011;3229;42.674;23.282;2022-10-16T14:22:26;2.75;;;2.55;;
6392;SDS011;3229;42.674;23.282;2022-10-16T14:24:56;4.40;;;2.58;;
6392;SDS011;3229;42.674;23.282;2022-10-16T14:27:29;3.03;;;2.83;;
6392;SDS011;3229;42.674;23.282;2022-10-16T14:32:54;3.00;;;2.80;;
6392;SDS011;3229;42.674;23.282;2022-10-16T14:35:24;3.53;;;3.03;;
6392;SDS011;3229;42.674;23.282;2022-10-16T14:37:52;3.17;;;2.80;;
6392;SDS011;3229;42.674;23.282;2022-10-16T14:40:20;3.25;;;2.95;;
6392;SDS011;3229;42.674;23.282;2022-10-16T14:42:49;4.25;;;3.47;;
6392;SDS011;3229;42.674;23.282;2022-10-16T14:45:20;4.47;;;3.50;;
6392;SDS011;3229;42.674;23.282;2022-10-16T14:47:49;6.70;;;3.63;;
6392;SDS011;3229;42.674;23.282;2022-10-16T14:50:18;3.90;;;3.03;;
6392;SDS011;3229;42.674;23.282;2022-10-16T14:52:45;3.87;;;3.40;;
6392;SDS011;3229;42.674;23.282;2022-10-16T14:55:12;4.00;;;3.42;;
6392;SDS011;3229;42.674;23.282;2022-10-16T14:57:39;4.40;;;3.15;;
6392;SDS011;3229;42.674;23.282;2022-10-16T15:00:10;4.03;;;3.63;;
6392;SDS011;3229;42.674;23.282;2022-10-16T15:02:43;6.17;;;3.37;;
6392;SDS011;3229;42.674;23.282;2022-10-16T15:05:12;4.67;;;2.77;;
6392;SDS011;3229;42.674;23.282;2022-10-16T15:07:41;3.90;;;3.50;;
6392;SDS011;3229;42.674;23.282;2022-10-16T15:10:08;4.83;;;3.77;;
6392;SDS011;3229;42.674;23.282;2022-10-16T15:12:35;7.30;;;3.70;;
6392;SDS011;3229;42.674;23.282;2022-10-16T15:15:08;3.73;;;3.20;;
6392;SDS011;3229;42.674;23.282;2022-10-16T15:17:55;3.60;;;3.17;;
6392;SDS011;3229;42.674;23.282;2022-10-16T15:20:26;3.90;;;3.10;;
6392;SDS011;3229;42.674;23.282;2022-10-16T15:22:55;3.37;;;3.07;;
6392;SDS011;3229;42.674;23.282;2022-10-16T15:25:32;3.37;;;3.07;;
6392;SDS011;3229;42.674;23.282;2022-10-16T15:28:02;5.10;;;3.20;;
6392;SDS011;3229;42.674;23.282;2022-10-16T15:30:30;7.33;;;3.77;;
6392;SDS011;3229;42.674;23.282;2022-10-16T15:32:58;3.40;;;3.07;;
6392;SDS011;3229;42.674;23.282;2022-10-16T15:35:26;3.87;;;3.47;;
6392;SDS011;3229;42.674;23.282;2022-10-16T15:37:53;4.50;;;3.70;;
6392;SDS011;3229;42.674;23.282;2022-10-16T15:40:21;5.33;;;3.10;;
6392;SDS011;3229;42.674;23.282;2022-10-16T15:42:49;3.53;;;3.23;;
6392;SDS011;3229;42.674;23.282;2022-10-16T15:45:16;3.60;;;3.17;;
6392;SDS011;3229;42.674;23.282;2022-10-16T15:47:44;3.40;;;3.10;;
6392;SDS011;3229;42.674;23.282;2022-10-16T15:50:13;4.87;;;3.67;;
6392;SDS011;3229;42.674;23.282;2022-10-16T15:52:41;3.93;;;3.20;;
6392;SDS011;3229;42.674;23.282;2022-10-16T15:55:08;3.70;;;2.80;;